sensor_id;sensor_type;location;lat;lon;timestamp;P1;durP1;ratioP1;P2;durP2;ratioP2
11524;SDS011;5819;49.648;8.330;2022-10-16T00:00:57;6.47;;;2.05;;
11524;SDS011;5819;49.648;8.330;2022-10-16T00:03:25;2.97;;;1.13;;
11524;SDS011;5819;49.648;8.330;2022-10-16T00:05:58;4.68;;;0.90;;
11524;SDS011;5819;49.648;8.330;2022-10-16T00:08:27;5.43;;;0.70;;
11524;SDS011;5819;49.648;8.330;2022-10-16T00:10:58;1.95;;;0.77;;
11524;SDS011;5819;49.648;8.330;2022-10-16T00:13:27;2.58;;;0.70;;
11524;SDS011;5819;49.648;8.330;2022-10-16T00:15:56;3.30;;;1.10;;
11524;SDS011;5819;49.648;8.330;2022-10-16T00:18:24;6.13;;;1.05;;
11524;SDS011;5819;49.648;8.330;2022-10-16T00:20:53;4.30;;;1.00;;
11524;SDS011;5819;49.648;8.330;2022-10-16T00:23:27;2.50;;;0.68;;
11524;SDS011;5819;49.648;8.330;2022-10-16T00:25:55;6.75;;;0.90;;
11524;SDS011;5819;49.648;8.330;2022-10-16T00:28:24;3.50;;;0.60;;
11524;SDS011;5819;49.648;8.330;2022-10-16T00:30:52;2.40;;;0.73;;
11524;SDS011;5819;49.648;8.330;2022-10-16T00:33:20;7.57;;;1.20;;
11524;SDS011;5819;49.648;8.330;2022-10-16T00:35:48;1.40;;;1.00;;
11524;SDS011;5819;49.648;8.330;2022-10-16T00:38:16;6.22;;;0.80;;
11524;SDS011;5819;49.648;8.330;2022-10-16T00:40:45;3.80;;;0.80;;
11524;SDS011;5819;49.648;8.330;2022-10-16T00:43:14;9.40;;;0.80;;
11524;SDS011;5819;49.648;8.330;2022-10-16T00:45:57;1.85;;;0.50;;
11524;SDS011;5819;49.648;8.330;2022-10-16T00:48:25;2.55;;;0.60;;
11524;SDS011;5819;49.648;8.330;2022-10-16T00:50:53;4.15;;;0.52;;
11524;SDS011;5819;49.648;8.330;2022-10-16T00:53:21;1.83;;;0.52;;
11524;SDS011;5819;49.648;8.330;2022-10-16T00:55:50;6.28;;;0.93;;
11524;SDS011;5819;49.648;8.330;2022-10-16T00:58:18;6.43;;;1.30;;
11524;SDS011;5819;49.648;8.330;2022-10-16T01:00:47;3.38;;;1.30;;
11524;SDS011;5819;49.648;8.330;2022-10-16T01:03:22;1.48;;;0.90;;
11524;SDS011;5819;49.648;8.330;2022-10-16T01:05:55;4.45;;;1.23;;
11524;SDS011;5819;49.648;8.330;2022-10-16T01:08:35;3.20;;;1.33;;
11524;SDS011;5819;49.648;8.330;2022-10-16T01:11:14;3.00;;;0.70;;
11524;SDS011;5819;49.648;8.330;2022-10-16T01:13:50;1.50;;;0.88;;
11524;SDS011;5819;49.648;8.330;2022-10-16T01:16:24;6.78;;;1.05;;
11524;SDS011;5819;49.648;8.330;2022-10-16T01:19:01;3.00;;;0.90;;
11524;SDS011;5819;49.648;8.330;2022-10-16T01:21:38;2.97;;;0.95;;
11524;SDS011;5819;49.648;8.330;2022-10-16T01:24:11;1.75;;;0.93;;
11524;SDS011;5819;49.648;8.330;2022-10-16T01:26:50;6.15;;;0.93;;
11524;SDS011;5819;49.648;8.330;2022-10-16T01:29:33;2.45;;;1.00;;
11524;SDS011;5819;49.648;8.330;2022-10-16T01:32:18;2.70;;;0.90;;
11524;SDS011;5819;49.648;8.330;2022-10-16T01:34:49;2.28;;;1.00;;
11524;SDS011;5819;49.648;8.330;2022-10-16T01:37:22;1.00;;;0.55;;
11524;SDS011;5819;49.648;8.330;2022-10-16T01:39:55;2.10;;;0.80;;
11524;SDS011;5819;49.648;8.330;2022-10-16T01:42:30;2.25;;;0.90;;
11524;SDS011;5819;49.648;8.330;2022-10-16T01:45:02;3.97;;;1.10;;
11524;SDS011;5819;49.648;8.330;2022-10-16T01:47:34;3.83;;;0.80;;
11524;SDS011;5819;49.648;8.330;2022-10-16T01:50:03;1.30;;;0.68;;
11524;SDS011;5819;49.648;8.330;2022-10-16T01:52:33;4.65;;;0.70;;
11524;SDS011;5819;49.648;8.330;2022-10-16T01:55:05;7.10;;;0.77;;
11524;SDS011;5819;49.648;8.330;2022-10-16T01:57:37;3.45;;;0.75;;
11524;SDS011;5819;49.648;8.330;2022-10-16T02:00:10;5.20;;;1.23;;
11524;SDS011;5819;49.648;8.330;2022-10-16T02:02:40;3.88;;;0.68;;
11524;SDS011;5819;49.648;8.330;2022-10-16T02:05:13;3.97;;;0.80;;
11524;SDS011;5819;49.648;8.330;2022-10-16T02:07:46;2.92;;;0.85;;
11524;SDS011;5819;49.648;8.330;2022-10-16T02:10:14;2.38;;;0.80;;
11524;SDS011;5819;49.648;8.330;2022-10-16T02:12:45;2.22;;;0.70;;
11524;SDS011;5819;49.648;8.330;2022-10-16T02:15:16;6.72;;;1.08;;
11524;SDS011;5819;49.648;8.330;2022-10-16T02:17:44;1.77;;;0.80;;
11524;SDS011;5819;49.648;8.330;2022-10-16T02:20:12;2.08;;;0.98;;
11524;SDS011;5819;49.648;8.330;2022-10-16T02:22:40;3.00;;;0.77;;
11524;SDS011;5819;49.648;8.330;2022-10-16T02:25:14;5.25;;;0.80;;
11524;SDS011;5819;49.648;8.330;2022-10-16T02:27:47;3.33;;;0.70;;
11524;SDS011;5819;49.648;8.330;2022-10-16T02:30:21;1.55;;;0.90;;
11524;SDS011;5819;49.648;8.330;2022-10-16T02:32:52;3.90;;;1.00;;
11524;SDS011;5819;49.648;8.330;2022-10-16T02:35:21;2.03;;;0.90;;
11524;SDS011;5819;49.648;8.330;2022-10-16T02:37:51;1.98;;;1.10;;
11524;SDS011;5819;49.648;8.330;2022-10-16T02:40:19;2.30;;;1.10;;
11524;SDS011;5819;49.648;8.330;2022-10-16T02:42:52;5.13;;;0.90;;
11524;SDS011;5819;49.648;8.330;2022-10-16T02:45:21;1.23;;;1.02;;
11524;SDS011;5819;49.648;8.330;2022-10-16T02:47:50;2.70;;;1.30;;
11524;SDS011;5819;49.648;8.330;2022-10-16T02:50:18;4.00;;;1.30;;
11524;SDS011;5819;49.648;8.330;2022-10-16T02:52:45;4.53;;;1.55;;
11524;SDS011;5819;49.648;8.330;2022-10-16T02:55:13;7.45;;;2.00;;
11524;SDS011;5819;49.648;8.330;2022-10-16T02:57:41;4.57;;;1.77;;
11524;SDS011;5819;49.648;8.330;2022-10-16T03:00:12;4.38;;;1.80;;
11524;SDS011;5819;49.648;8.330;2022-10-16T03:02:41;4.35;;;1.67;;
11524;SDS011;5819;49.648;8.330;2022-10-16T03:05:09;4.82;;;1.55;;
11524;SDS011;5819;49.648;8.330;2022-10-16T03:07:37;4.43;;;1.75;;
11524;SDS011;5819;49.648;8.330;2022-10-16T03:10:06;3.72;;;1.60;;
11524;SDS011;5819;49.648;8.330;2022-10-16T03:12:34;3.03;;;1.58;;
11524;SDS011;5819;49.648;8.330;2022-10-16T03:15:02;6.57;;;2.00;;
11524;SDS011;5819;49.648;8.330;2022-10-16T03:17:32;5.55;;;1.88;;
11524;SDS011;5819;49.648;8.330;2022-10-16T03:20:00;6.35;;;2.03;;
11524;SDS011;5819;49.648;8.330;2022-10-16T03:22:28;3.38;;;1.98;;
11524;SDS011;5819;49.648;8.330;2022-10-16T03:24:56;4.15;;;1.98;;
11524;SDS011;5819;49.648;8.330;2022-10-16T03:27:24;3.92;;;1.95;;
11524;SDS011;5819;49.648;8.330;2022-10-16T03:29:52;4.65;;;2.55;;
11524;SDS011;5819;49.648;8.330;2022-10-16T03:32:20;5.78;;;2.42;;
11524;SDS011;5819;49.648;8.330;2022-10-16T03:34:49;4.97;;;1.98;;
11524;SDS011;5819;49.648;8.330;2022-10-16T03:37:17;4.15;;;2.10;;
11524;SDS011;5819;49.648;8.330;2022-10-16T03:39:44;2.67;;;1.80;;
11524;SDS011;5819;49.648;8.330;2022-10-16T03:42:12;5.03;;;2.00;;
11524;SDS011;5819;49.648;8.330;2022-10-16T03:44:40;3.03;;;2.33;;
11524;SDS011;5819;49.648;8.330;2022-10-16T03:47:07;7.78;;;2.47;;
11524;SDS011;5819;49.648;8.330;2022-10-16T03:49:35;6.63;;;2.80;;
11524;SDS011;5819;49.648;8.330;2022-10-16T03:52:04;8.35;;;2.45;;
11524;SDS011;5819;49.648;8.330;2022-10-16T03:54:32;3.85;;;2.50;;
11524;SDS011;5819;49.648;8.330;2022-10-16T03:57:00;3.40;;;2.45;;
11524;SDS011;5819;49.648;8.330;2022-10-16T03:59:28;4.95;;;2.40;;
11524;SDS011;5819;49.648;8.330;2022-10-16T04:01:55;2.70;;;2.13;;
11524;SDS011;5819;49.648;8.330;2022-10-16T04:04:23;2.92;;;2.38;;
11524;SDS011;5819;49.648;8.330;2022-10-16T04:06:51;2.00;;;1.80;;
11524;SDS011;5819;49.648;8.330;2022-10-16T04:09:20;4.13;;;1.60;;
11524;SDS011;5819;49.648;8.330;2022-10-16T04:11:48;3.80;;;1.80;;
11524;SDS011;5819;49.648;8.330;2022-10-16T04:14:16;5.55;;;1.70;;
11524;SDS011;5819;49.648;8.330;2022-10-16T04:16:44;2.58;;;1.70;;
11524;SDS011;5819;49.648;8.330;2022-10-16T04:19:12;3.42;;;1.58;;
11524;SDS011;5819;49.648;8.330;2022-10-16T04:21:40;3.63;;;1.60;;
11524;SDS011;5819;49.648;8.330;2022-10-16T04:24:08;2.75;;;1.65;;
11524;SDS011;5819;49.648;8.330;2022-10-16T04:26:38;4.53;;;2.05;;
11524;SDS011;5819;49.648;8.330;2022-10-16T04:29:06;4.30;;;2.03;;
11524;SDS011;5819;49.648;8.330;2022-10-16T04:31:34;6.50;;;2.40;;
11524;SDS011;5819;49.648;8.330;2022-10-16T04:34:01;3.90;;;2.40;;
11524;SDS011;5819;49.648;8.330;2022-10-16T04:36:29;5.28;;;2.45;;
11524;SDS011;5819;49.648;8.330;2022-10-16T04:38:57;5.75;;;2.40;;
11524;SDS011;5819;49.648;8.330;2022-10-16T04:41:24;4.68;;;2.75;;
11524;SDS011;5819;49.648;8.330;2022-10-16T04:43:53;5.22;;;2.45;;
11524;SDS011;5819;49.648;8.330;2022-10-16T04:46:21;3.95;;;2.45;;
11524;SDS011;5819;49.648;8.330;2022-10-16T04:48:49;3.90;;;2.20;;
11524;SDS011;5819;49.648;8.330;2022-10-16T04:51:17;4.38;;;2.38;;
11524;SDS011;5819;49.648;8.330;2022-10-16T04:53:45;7.47;;;3.40;;
11524;SDS011;5819;49.648;8.330;2022-10-16T04:56:12;6.43;;;3.30;;
11524;SDS011;5819;49.648;8.330;2022-10-16T04:58:41;9.80;;;3.80;;
11524;SDS011;5819;49.648;8.330;2022-10-16T05:01:10;6.65;;;3.92;;
11524;SDS011;5819;49.648;8.330;2022-10-16T05:03:38;5.90;;;3.70;;
11524;SDS011;5819;49.648;8.330;2022-10-16T05:06:05;4.25;;;3.33;;
11524;SDS011;5819;49.648;8.330;2022-10-16T05:08:33;5.72;;;3.00;;
11524;SDS011;5819;49.648;8.330;2022-10-16T05:11:01;5.35;;;3.20;;
11524;SDS011;5819;49.648;8.330;2022-10-16T05:13:29;10.00;;;3.53;;
11524;SDS011;5819;49.648;8.330;2022-10-16T05:15:57;6.18;;;2.97;;
11524;SDS011;5819;49.648;8.330;2022-10-16T05:18:26;5.47;;;3.75;;
11524;SDS011;5819;49.648;8.330;2022-10-16T05:20:53;7.10;;;3.28;;
11524;SDS011;5819;49.648;8.330;2022-10-16T05:23:21;3.70;;;3.10;;
11524;SDS011;5819;49.648;8.330;2022-10-16T05:25:53;5.53;;;3.17;;
11524;SDS011;5819;49.648;8.330;2022-10-16T05:28:21;4.32;;;3.08;;
11524;SDS011;5819;49.648;8.330;2022-10-16T05:30:49;5.75;;;3.10;;
11524;SDS011;5819;49.648;8.330;2022-10-16T05:33:17;5.25;;;3.03;;
11524;SDS011;5819;49.648;8.330;2022-10-16T05:35:48;5.80;;;3.20;;
11524;SDS011;5819;49.648;8.330;2022-10-16T05:38:16;5.95;;;2.95;;
11524;SDS011;5819;49.648;8.330;2022-10-16T05:40:49;6.97;;;3.40;;
11524;SDS011;5819;49.648;8.330;2022-10-16T05:43:18;4.78;;;3.10;;
11524;SDS011;5819;49.648;8.330;2022-10-16T05:45:53;4.78;;;3.85;;
11524;SDS011;5819;49.648;8.330;2022-10-16T05:48:21;4.97;;;3.58;;
11524;SDS011;5819;49.648;8.330;2022-10-16T05:50:57;2.95;;;2.65;;
11524;SDS011;5819;49.648;8.330;2022-10-16T05:53:26;4.13;;;3.72;;
11524;SDS011;5819;49.648;8.330;2022-10-16T05:55:55;6.80;;;3.38;;
11524;SDS011;5819;49.648;8.330;2022-10-16T05:58:24;7.47;;;3.25;;
11524;SDS011;5819;49.648;8.330;2022-10-16T06:00:55;6.75;;;3.20;;
11524;SDS011;5819;49.648;8.330;2022-10-16T06:03:24;6.88;;;3.38;;
11524;SDS011;5819;49.648;8.330;2022-10-16T06:05:52;5.40;;;3.50;;
11524;SDS011;5819;49.648;8.330;2022-10-16T06:08:22;6.70;;;3.55;;
11524;SDS011;5819;49.648;8.330;2022-10-16T06:10:59;4.57;;;3.50;;
11524;SDS011;5819;49.648;8.330;2022-10-16T06:13:28;4.97;;;2.88;;
11524;SDS011;5819;49.648;8.330;2022-10-16T06:15:56;4.88;;;3.20;;
11524;SDS011;5819;49.648;8.330;2022-10-16T06:18:25;5.80;;;3.30;;
11524;SDS011;5819;49.648;8.330;2022-10-16T06:20:53;6.30;;;3.45;;
11524;SDS011;5819;49.648;8.330;2022-10-16T06:23:23;7.72;;;2.75;;
11524;SDS011;5819;49.648;8.330;2022-10-16T06:25:51;6.28;;;3.58;;
11524;SDS011;5819;49.648;8.330;2022-10-16T06:28:19;4.35;;;3.97;;
11524;SDS011;5819;49.648;8.330;2022-10-16T06:30:46;4.63;;;3.65;;
11524;SDS011;5819;49.648;8.330;2022-10-16T06:33:14;6.25;;;4.45;;
11524;SDS011;5819;49.648;8.330;2022-10-16T06:35:42;7.00;;;4.55;;
11524;SDS011;5819;49.648;8.330;2022-10-16T06:38:10;5.80;;;4.70;;
11524;SDS011;5819;49.648;8.330;2022-10-16T06:40:39;5.90;;;3.97;;
11524;SDS011;5819;49.648;8.330;2022-10-16T06:43:07;6.60;;;4.47;;
11524;SDS011;5819;49.648;8.330;2022-10-16T06:45:34;8.68;;;5.70;;
11524;SDS011;5819;49.648;8.330;2022-10-16T06:48:02;12.15;;;8.50;;
11524;SDS011;5819;49.648;8.330;2022-10-16T06:50:30;11.13;;;6.15;;
11524;SDS011;5819;49.648;8.330;2022-10-16T06:52:58;8.90;;;5.53;;
11524;SDS011;5819;49.648;8.330;2022-10-16T06:55:26;7.80;;;4.80;;
11524;SDS011;5819;49.648;8.330;2022-10-16T06:57:55;7.93;;;4.90;;
11524;SDS011;5819;49.648;8.330;2022-10-16T07:00:22;6.63;;;4.57;;
11524;SDS011;5819;49.648;8.330;2022-10-16T07:02:55;7.88;;;3.95;;
11524;SDS011;5819;49.648;8.330;2022-10-16T07:05:23;5.80;;;4.50;;
11524;SDS011;5819;49.648;8.330;2022-10-16T07:07:50;5.30;;;4.07;;
11524;SDS011;5819;49.648;8.330;2022-10-16T07:10:18;4.68;;;3.83;;
11524;SDS011;5819;49.648;8.330;2022-10-16T07:12:50;7.43;;;4.30;;
11524;SDS011;5819;49.648;8.330;2022-10-16T07:15:19;9.77;;;4.20;;
11524;SDS011;5819;49.648;8.330;2022-10-16T07:17:47;4.10;;;3.65;;
11524;SDS011;5819;49.648;8.330;2022-10-16T07:20:15;9.32;;;4.25;;
11524;SDS011;5819;49.648;8.330;2022-10-16T07:22:43;7.30;;;3.95;;
11524;SDS011;5819;49.648;8.330;2022-10-16T07:25:11;7.13;;;4.03;;
11524;SDS011;5819;49.648;8.330;2022-10-16T07:27:39;4.80;;;3.83;;
11524;SDS011;5819;49.648;8.330;2022-10-16T07:30:07;4.90;;;4.47;;
11524;SDS011;5819;49.648;8.330;2022-10-16T07:32:37;6.25;;;4.10;;
11524;SDS011;5819;49.648;8.330;2022-10-16T07:35:05;6.35;;;4.43;;
11524;SDS011;5819;49.648;8.330;2022-10-16T07:37:33;6.38;;;4.72;;
11524;SDS011;5819;49.648;8.330;2022-10-16T07:40:01;4.85;;;4.07;;
11524;SDS011;5819;49.648;8.330;2022-10-16T07:42:30;4.95;;;4.38;;
11524;SDS011;5819;49.648;8.330;2022-10-16T07:44:57;5.22;;;4.70;;
11524;SDS011;5819;49.648;8.330;2022-10-16T07:47:25;6.25;;;4.60;;
11524;SDS011;5819;49.648;8.330;2022-10-16T07:49:55;7.03;;;4.30;;
11524;SDS011;5819;49.648;8.330;2022-10-16T07:52:22;7.32;;;4.55;;
11524;SDS011;5819;49.648;8.330;2022-10-16T07:54:50;7.80;;;4.90;;
11524;SDS011;5819;49.648;8.330;2022-10-16T07:57:18;7.20;;;5.18;;
11524;SDS011;5819;49.648;8.330;2022-10-16T07:59:46;7.35;;;4.85;;
11524;SDS011;5819;49.648;8.330;2022-10-16T08:02:13;6.90;;;4.45;;
11524;SDS011;5819;49.648;8.330;2022-10-16T08:04:41;7.82;;;4.80;;
11524;SDS011;5819;49.648;8.330;2022-10-16T08:07:10;5.85;;;4.45;;
11524;SDS011;5819;49.648;8.330;2022-10-16T08:09:38;6.88;;;4.80;;
11524;SDS011;5819;49.648;8.330;2022-10-16T08:12:07;6.65;;;5.07;;
11524;SDS011;5819;49.648;8.330;2022-10-16T08:14:36;10.23;;;5.47;;
11524;SDS011;5819;49.648;8.330;2022-10-16T08:17:05;8.52;;;5.30;;
11524;SDS011;5819;49.648;8.330;2022-10-16T08:19:33;7.10;;;4.63;;
11524;SDS011;5819;49.648;8.330;2022-10-16T08:22:01;8.80;;;5.40;;
11524;SDS011;5819;49.648;8.330;2022-10-16T08:24:30;16.95;;;5.82;;
11524;SDS011;5819;49.648;8.330;2022-10-16T08:26:58;15.35;;;6.32;;
11524;SDS011;5819;49.648;8.330;2022-10-16T08:29:26;15.65;;;6.93;;
11524;SDS011;5819;49.648;8.330;2022-10-16T08:31:53;17.23;;;7.13;;
11524;SDS011;5819;49.648;8.330;2022-10-16T08:34:21;9.73;;;5.82;;
11524;SDS011;5819;49.648;8.330;2022-10-16T08:36:49;16.60;;;6.70;;
11524;SDS011;5819;49.648;8.330;2022-10-16T08:39:17;7.85;;;6.25;;
11524;SDS011;5819;49.648;8.330;2022-10-16T08:42:04;11.20;;;7.00;;
11524;SDS011;5819;49.648;8.330;2022-10-16T08:44:54;8.88;;;6.05;;
11524;SDS011;5819;49.648;8.330;2022-10-16T08:47:45;9.10;;;7.35;;
11524;SDS011;5819;49.648;8.330;2022-10-16T08:50:19;10.90;;;7.57;;
11524;SDS011;5819;49.648;8.330;2022-10-16T08:52:51;9.15;;;7.22;;
11524;SDS011;5819;49.648;8.330;2022-10-16T08:55:23;9.27;;;7.57;;
11524;SDS011;5819;49.648;8.330;2022-10-16T08:58:02;7.82;;;6.90;;
11524;SDS011;5819;49.648;8.330;2022-10-16T09:00:39;11.10;;;6.63;;
11524;SDS011;5819;49.648;8.330;2022-10-16T09:03:10;8.35;;;6.55;;
11524;SDS011;5819;49.648;8.330;2022-10-16T09:05:48;11.10;;;7.10;;
11524;SDS011;5819;49.648;8.330;2022-10-16T09:08:23;9.35;;;7.10;;
11524;SDS011;5819;49.648;8.330;2022-10-16T09:10:58;13.65;;;7.38;;
11524;SDS011;5819;49.648;8.330;2022-10-16T09:13:36;7.32;;;5.90;;
11524;SDS011;5819;49.648;8.330;2022-10-16T09:16:13;8.48;;;6.68;;
11524;SDS011;5819;49.648;8.330;2022-10-16T09:18:48;8.30;;;6.85;;
11524;SDS011;5819;49.648;8.330;2022-10-16T09:21:23;12.65;;;6.95;;
11524;SDS011;5819;49.648;8.330;2022-10-16T09:23:53;10.85;;;7.10;;
11524;SDS011;5819;49.648;8.330;2022-10-16T09:26:24;9.32;;;7.03;;
11524;SDS011;5819;49.648;8.330;2022-10-16T09:28:53;11.40;;;6.50;;
11524;SDS011;5819;49.648;8.330;2022-10-16T09:31:21;6.40;;;5.50;;
11524;SDS011;5819;49.648;8.330;2022-10-16T09:33:52;11.23;;;5.68;;
11524;SDS011;5819;49.648;8.330;2022-10-16T09:36:25;22.85;;;20.15;;
11524;SDS011;5819;49.648;8.330;2022-10-16T09:39:02;39.58;;;32.50;;
11524;SDS011;5819;49.648;8.330;2022-10-16T09:41:33;12.07;;;8.93;;
11524;SDS011;5819;49.648;8.330;2022-10-16T09:44:04;9.05;;;6.70;;
11524;SDS011;5819;49.648;8.330;2022-10-16T09:46:42;7.05;;;5.68;;
11524;SDS011;5819;49.648;8.330;2022-10-16T09:49:18;7.80;;;6.00;;
11524;SDS011;5819;49.648;8.330;2022-10-16T09:51:49;6.35;;;5.05;;
11524;SDS011;5819;49.648;8.330;2022-10-16T09:54:20;7.15;;;5.50;;
11524;SDS011;5819;49.648;8.330;2022-10-16T09:56:48;6.85;;;5.13;;
11524;SDS011;5819;49.648;8.330;2022-10-16T09:59:20;5.78;;;5.18;;
11524;SDS011;5819;49.648;8.330;2022-10-16T10:01:53;8.05;;;5.53;;
11524;SDS011;5819;49.648;8.330;2022-10-16T10:04:22;7.22;;;5.15;;
11524;SDS011;5819;49.648;8.330;2022-10-16T10:06:52;5.57;;;4.15;;
11524;SDS011;5819;49.648;8.330;2022-10-16T10:09:22;5.47;;;4.28;;
11524;SDS011;5819;49.648;8.330;2022-10-16T10:11:52;5.65;;;4.60;;
11524;SDS011;5819;49.648;8.330;2022-10-16T10:14:27;5.55;;;4.47;;
11524;SDS011;5819;49.648;8.330;2022-10-16T10:19:47;4.88;;;4.20;;
11524;SDS011;5819;49.648;8.330;2022-10-16T10:22:18;5.53;;;4.35;;
11524;SDS011;5819;49.648;8.330;2022-10-16T10:25:00;4.95;;;4.07;;
11524;SDS011;5819;49.648;8.330;2022-10-16T10:27:48;7.45;;;4.55;;
11524;SDS011;5819;49.648;8.330;2022-10-16T10:30:27;4.65;;;3.78;;
11524;SDS011;5819;49.648;8.330;2022-10-16T10:33:10;3.90;;;3.42;;
11524;SDS011;5819;49.648;8.330;2022-10-16T10:35:49;4.97;;;3.67;;
11524;SDS011;5819;49.648;8.330;2022-10-16T10:38:29;5.80;;;3.70;;
11524;SDS011;5819;49.648;8.330;2022-10-16T10:41:10;7.15;;;4.30;;
11524;SDS011;5819;49.648;8.330;2022-10-16T10:43:55;5.40;;;3.72;;
11524;SDS011;5819;49.648;8.330;2022-10-16T10:46:34;4.45;;;3.67;;
11524;SDS011;5819;49.648;8.330;2022-10-16T10:49:16;5.60;;;3.88;;
11524;SDS011;5819;49.648;8.330;2022-10-16T10:51:54;4.20;;;3.80;;
11524;SDS011;5819;49.648;8.330;2022-10-16T10:54:31;8.23;;;5.53;;
11524;SDS011;5819;49.648;8.330;2022-10-16T10:57:06;4.32;;;3.20;;
11524;SDS011;5819;49.648;8.330;2022-10-16T11:02:37;4.05;;;3.65;;
11524;SDS011;5819;49.648;8.330;2022-10-16T11:08:08;4.35;;;3.80;;
11524;SDS011;5819;49.648;8.330;2022-10-16T11:10:45;5.18;;;3.92;;
11524;SDS011;5819;49.648;8.330;2022-10-16T11:13:20;8.30;;;5.78;;
11524;SDS011;5819;49.648;8.330;2022-10-16T11:15:54;7.70;;;5.80;;
11524;SDS011;5819;49.648;8.330;2022-10-16T11:18:29;3.90;;;3.50;;
11524;SDS011;5819;49.648;8.330;2022-10-16T11:21:02;5.40;;;3.65;;
11524;SDS011;5819;49.648;8.330;2022-10-16T11:23:35;7.60;;;3.90;;
11524;SDS011;5819;49.648;8.330;2022-10-16T11:26:10;5.20;;;3.38;;
11524;SDS011;5819;49.648;8.330;2022-10-16T11:28:42;4.55;;;3.13;;
11524;SDS011;5819;49.648;8.330;2022-10-16T11:31:16;4.13;;;2.80;;
11524;SDS011;5819;49.648;8.330;2022-10-16T11:33:51;4.28;;;3.42;;
11524;SDS011;5819;49.648;8.330;2022-10-16T11:36:25;5.53;;;3.30;;
11524;SDS011;5819;49.648;8.330;2022-10-16T11:39:02;4.10;;;3.70;;
11524;SDS011;5819;49.648;8.330;2022-10-16T11:41:37;3.30;;;3.00;;
11524;SDS011;5819;49.648;8.330;2022-10-16T11:44:14;5.32;;;3.58;;
11524;SDS011;5819;49.648;8.330;2022-10-16T11:46:48;6.15;;;3.30;;
11524;SDS011;5819;49.648;8.330;2022-10-16T11:49:46;4.35;;;3.67;;
11524;SDS011;5819;49.648;8.330;2022-10-16T11:52:19;9.30;;;3.70;;
11524;SDS011;5819;49.648;8.330;2022-10-16T11:54:52;3.88;;;3.10;;
11524;SDS011;5819;49.648;8.330;2022-10-16T11:57:23;4.90;;;3.35;;
11524;SDS011;5819;49.648;8.330;2022-10-16T11:59:55;5.75;;;3.05;;
11524;SDS011;5819;49.648;8.330;2022-10-16T12:02:29;9.55;;;3.55;;
11524;SDS011;5819;49.648;8.330;2022-10-16T12:05:11;3.50;;;3.20;;
11524;SDS011;5819;49.648;8.330;2022-10-16T12:07:48;5.10;;;3.67;;
11524;SDS011;5819;49.648;8.330;2022-10-16T12:10:23;6.03;;;3.20;;
11524;SDS011;5819;49.648;8.330;2022-10-16T12:12:53;3.88;;;2.83;;
11524;SDS011;5819;49.648;8.330;2022-10-16T12:15:23;8.77;;;3.00;;
11524;SDS011;5819;49.648;8.330;2022-10-16T12:18:20;5.85;;;3.15;;
11524;SDS011;5819;49.648;8.330;2022-10-16T12:20:55;6.90;;;2.70;;
11524;SDS011;5819;49.648;8.330;2022-10-16T12:23:26;4.10;;;2.65;;
11524;SDS011;5819;49.648;8.330;2022-10-16T12:25:54;5.10;;;3.10;;
11524;SDS011;5819;49.648;8.330;2022-10-16T12:28:26;8.90;;;3.22;;
11524;SDS011;5819;49.648;8.330;2022-10-16T12:30:56;3.55;;;2.80;;
11524;SDS011;5819;49.648;8.330;2022-10-16T12:33:26;3.33;;;2.83;;
11524;SDS011;5819;49.648;8.330;2022-10-16T12:35:58;3.60;;;3.30;;
11524;SDS011;5819;49.648;8.330;2022-10-16T12:38:28;4.63;;;2.90;;
11524;SDS011;5819;49.648;8.330;2022-10-16T12:41:04;5.13;;;2.90;;
11524;SDS011;5819;49.648;8.330;2022-10-16T12:43:35;5.65;;;3.70;;
11524;SDS011;5819;49.648;8.330;2022-10-16T12:46:06;4.70;;;4.15;;
11524;SDS011;5819;49.648;8.330;2022-10-16T12:48:49;7.10;;;4.93;;
11524;SDS011;5819;49.648;8.330;2022-10-16T12:51:36;5.05;;;4.53;;
11524;SDS011;5819;49.648;8.330;2022-10-16T12:54:09;5.43;;;3.95;;
11524;SDS011;5819;49.648;8.330;2022-10-16T12:56:42;4.93;;;3.47;;
11524;SDS011;5819;49.648;8.330;2022-10-16T12:59:20;4.90;;;3.47;;
11524;SDS011;5819;49.648;8.330;2022-10-16T13:02:01;7.30;;;3.97;;
11524;SDS011;5819;49.648;8.330;2022-10-16T13:04:52;5.45;;;3.75;;
11524;SDS011;5819;49.648;8.330;2022-10-16T13:07:44;4.88;;;3.85;;
11524;SDS011;5819;49.648;8.330;2022-10-16T13:10:21;6.50;;;3.90;;
11524;SDS011;5819;49.648;8.330;2022-10-16T13:16:01;4.25;;;3.80;;
11524;SDS011;5819;49.648;8.330;2022-10-16T13:18:40;5.55;;;3.67;;
11524;SDS011;5819;49.648;8.330;2022-10-16T13:21:16;5.22;;;3.70;;
11524;SDS011;5819;49.648;8.330;2022-10-16T13:23:55;4.60;;;3.55;;
11524;SDS011;5819;49.648;8.330;2022-10-16T13:26:31;6.13;;;3.90;;
11524;SDS011;5819;49.648;8.330;2022-10-16T13:29:08;7.93;;;4.22;;
11524;SDS011;5819;49.648;8.330;2022-10-16T13:31:37;3.92;;;3.60;;
11524;SDS011;5819;49.648;8.330;2022-10-16T13:34:06;4.57;;;3.30;;
11524;SDS011;5819;49.648;8.330;2022-10-16T13:36:46;4.20;;;3.20;;
11524;SDS011;5819;49.648;8.330;2022-10-16T13:39:22;7.30;;;3.65;;
11524;SDS011;5819;49.648;8.330;2022-10-16T13:41:58;4.07;;;3.58;;
11524;SDS011;5819;49.648;8.330;2022-10-16T13:44:36;6.03;;;3.97;;
11524;SDS011;5819;49.648;8.330;2022-10-16T13:47:15;10.85;;;3.78;;
11524;SDS011;5819;49.648;8.330;2022-10-16T13:49:45;4.10;;;3.05;;
11524;SDS011;5819;49.648;8.330;2022-10-16T13:52:17;4.00;;;3.58;;
11524;SDS011;5819;49.648;8.330;2022-10-16T13:54:48;3.13;;;2.78;;
11524;SDS011;5819;49.648;8.330;2022-10-16T13:57:17;4.88;;;3.28;;
11524;SDS011;5819;49.648;8.330;2022-10-16T13:59:53;6.63;;;5.00;;
11524;SDS011;5819;49.648;8.330;2022-10-16T14:02:22;7.28;;;5.07;;
11524;SDS011;5819;49.648;8.330;2022-10-16T14:04:54;5.63;;;3.10;;
11524;SDS011;5819;49.648;8.330;2022-10-16T14:07:24;3.38;;;3.00;;
11524;SDS011;5819;49.648;8.330;2022-10-16T14:09:55;3.63;;;3.28;;
11524;SDS011;5819;49.648;8.330;2022-10-16T14:12:27;4.38;;;3.90;;
11524;SDS011;5819;49.648;8.330;2022-10-16T14:14:55;6.60;;;4.53;;
11524;SDS011;5819;49.648;8.330;2022-10-16T14:17:27;7.60;;;4.50;;
11524;SDS011;5819;49.648;8.330;2022-10-16T14:19:57;6.88;;;4.35;;
11524;SDS011;5819;49.648;8.330;2022-10-16T14:22:32;4.72;;;4.25;;
11524;SDS011;5819;49.648;8.330;2022-10-16T14:25:13;6.93;;;4.55;;
11524;SDS011;5819;49.648;8.330;2022-10-16T14:27:56;6.90;;;3.95;;
11524;SDS011;5819;49.648;8.330;2022-10-16T14:30:25;6.63;;;4.13;;
11524;SDS011;5819;49.648;8.330;2022-10-16T14:32:54;6.30;;;3.72;;
11524;SDS011;5819;49.648;8.330;2022-10-16T14:35:25;4.53;;;3.67;;
11524;SDS011;5819;49.648;8.330;2022-10-16T14:37:56;8.18;;;3.58;;
11524;SDS011;5819;49.648;8.330;2022-10-16T14:40:28;7.05;;;3.17;;
11524;SDS011;5819;49.648;8.330;2022-10-16T14:42:58;8.43;;;3.67;;
11524;SDS011;5819;49.648;8.330;2022-10-16T14:45:27;6.40;;;3.35;;
11524;SDS011;5819;49.648;8.330;2022-10-16T14:47:58;7.25;;;3.40;;
11524;SDS011;5819;49.648;8.330;2022-10-16T14:50:28;4.85;;;3.58;;
11524;SDS011;5819;49.648;8.330;2022-10-16T14:52:56;5.32;;;3.30;;
11524;SDS011;5819;49.648;8.330;2022-10-16T14:55:25;7.07;;;3.80;;
11524;SDS011;5819;49.648;8.330;2022-10-16T14:57:55;6.70;;;3.58;;
11524;SDS011;5819;49.648;8.330;2022-10-16T15:00:26;4.53;;;2.85;;
11524;SDS011;5819;49.648;8.330;2022-10-16T15:02:55;5.20;;;3.72;;
11524;SDS011;5819;49.648;8.330;2022-10-16T15:05:23;4.40;;;3.30;;
11524;SDS011;5819;49.648;8.330;2022-10-16T15:07:53;24.92;;;17.35;;
11524;SDS011;5819;49.648;8.330;2022-10-16T15:10:22;5.60;;;4.30;;
11524;SDS011;5819;49.648;8.330;2022-10-16T15:12:51;8.48;;;3.33;;
11524;SDS011;5819;49.648;8.330;2022-10-16T15:15:34;7.47;;;4.13;;
11524;SDS011;5819;49.648;8.330;2022-10-16T15:18:04;6.53;;;5.20;;
11524;SDS011;5819;49.648;8.330;2022-10-16T15:20:33;7.65;;;4.65;;
11524;SDS011;5819;49.648;8.330;2022-10-16T15:23:03;5.72;;;4.15;;
11524;SDS011;5819;49.648;8.330;2022-10-16T15:25:35;4.82;;;4.13;;
11524;SDS011;5819;49.648;8.330;2022-10-16T15:28:06;5.05;;;3.42;;
11524;SDS011;5819;49.648;8.330;2022-10-16T15:30:36;6.07;;;4.07;;
11524;SDS011;5819;49.648;8.330;2022-10-16T15:33:08;5.45;;;3.55;;
11524;SDS011;5819;49.648;8.330;2022-10-16T15:35:40;4.30;;;3.55;;
11524;SDS011;5819;49.648;8.330;2022-10-16T15:38:09;4.75;;;3.25;;